Home > Products > Valid Products > MTR

000
SAUS45 KRIW 011157
MTRP60
METAR KP60 011156Z AUTO 30004KT 03/02 A3014 RMK AO1 SLP169 60001
70013 T00280022 10044 20022 55001





000
SAUS45 KRIW 011057
MTRP60
METAR KP60 011056Z AUTO 00000KT 03/03 A3014 RMK AO1 SLP166 T00330028





000
SAUS45 KRIW 010957
MTRP60
METAR KP60 010956Z AUTO VRB03KT 04/03 A3014 RMK AO1 SLP164 P0001
T00390028





000
SAUS45 KRIW 010758
MTRP60
METAR KP60 010756Z AUTO 00000KT 02/02 A3015 RMK AO1 SLP177 T00220017





000
SAUS45 KRIW 010659
MTRP60
METAR KP60 010656Z AUTO 00000KT 03/02 A3015 RMK AO1 SLP176 T00330017
401000033





000
SAUS45 KRIW 010559
MTRP60
METAR KP60 010556Z AUTO 00000KT 04/02 A3017 RMK AO1 SLP180 T00390022
10089 20033 51002





000
SAUS45 KRIW 010458
MTRP60
METAR KP60 010456Z AUTO VRB04KT 04/02 A3017 RMK AO1 SLP187 T00390022





000
SAUS45 KRIW 010359
MTRP60
METAR KP60 010356Z AUTO VRB03KT 05/02 A3017 RMK AO1 SLP185 T00500022





000
SAUS45 KRIW 010259
MTRP60
METAR KP60 010256Z AUTO 00000KT 05/03 A3016 RMK AO1 SLP181 T00500033
53007





000
SAUS45 KRIW 010158
MTRP60
METAR KP60 010156Z AUTO 00000KT 07/03 A3014 RMK AO1 SLP172 T00670033





000
SAUS45 KRIW 010059
MTRP60
METAR KP60 010056Z AUTO VRB03KT 08/04 A3014 RMK AO1 SLP172 T00780044





000
SAUS45 KRIW 312358
MTRP60
METAR KP60 312356Z AUTO VRB03KT 09/05 A3013 RMK AO1 SLP165 60009
T00890050 10100 20067 53003





000
SAUS45 KRIW 312258
MTRP60
METAR KP60 312256Z AUTO VRB04KT 09/04 A3012 RMK AO1 SLP158 T00890044





000
SAUS45 KRIW 312158
MTRP60
METAR KP60 312156Z AUTO VRB04KT 09/06 A3012 RMK AO1 SLP156 P0001
T00940056





000
SAUS45 KRIW 312059
MTRP60
METAR KP60 312056Z AUTO 26008KT 230V300 09/06 A3012 RMK AO1 SLP161
60008 T00890056 53005





000
SAUS45 KRIW 311959
MTRP60
METAR KP60 311956Z AUTO VRB03KT 08/06 A3011 RMK AO1 SLP158 P0008
T00780056





000
SAUS45 KRIW 311858
MTRP60
METAR KP60 311856Z AUTO VRB03KT 08/05 A3010 RMK AO1 SLP152 T00780050





000
SAUS45 KRIW 311759
MTRP60
METAR KP60 311756Z AUTO 00000KT 07/04 A3010 RMK AO1 SLP158 60003
T00670044 10072 20033 51010





000
SAUS45 KRIW 311658
MTRP60
METAR KP60 311656Z AUTO VRB04KT 05/03 A3010 RMK AO1 SLP161 P0002
T00500033





000
SAUS45 KRIW 311558
MTRP60
METAR KP60 311556Z AUTO 28003KT 05/04 A3008 RMK AO1 SLP154 P0001
T00500039





000
SAUS45 KRIW 311459
MTRP60
METAR KP60 311456Z AUTO 00000KT 05/04 A3006 RMK AO1 SLP146 T00500039
51011





000
SAUS45 KRIW 311358
MTRP60
METAR KP60 311356Z AUTO 00000KT 04/03 A3006 RMK AO1 SLP148 T00390028





000
SAUS45 KRIW 311259
MTRP60
METAR KP60 311256Z AUTO 00000KT 03/03 A3004 RMK AO1 SLP137 T00330028





000
SAUS45 KRIW 311159
MTRP60
METAR KP60 311156Z AUTO 00000KT 03/03 A3002 RMK AO1 SLP126 60020
70100 T00330033 10044 20033 56010





000
SAUS45 KRIW 311058
MTRP60
METAR KP60 311056Z AUTO 00000KT 04/03 A3003 RMK AO1 SLP132 T00390028





000
SAUS45 KRIW 310959
MTRP60
METAR KP60 310956Z AUTO 00000KT 03/03 A3004 RMK AO1 SLP143 P0003
T00330028





000
SAUS45 KRIW 310859
MTRP60
METAR KP60 310856Z AUTO 00000KT 03/03 A3006 RMK AO1 SLP152 P0007
60017 T00330028 56009





000
SAUS45 KRIW 310758
MTRP60
METAR KP60 310756Z AUTO 00000KT 04/03 A3007 RMK AO1 SLP148 P0004
T00390033





000
SAUS45 KRIW 310659
MTRP60
METAR KP60 310656Z AUTO 00000KT 04/03 A3007 RMK AO1 SLP143 P0006
T00390033 401390039





000
SAUS45 KRIW 310558
MTRP60
METAR KP60 310556Z AUTO 00000KT 04/03 A3009 RMK AO1 SLP145 P0016
60033 T00390033 10083 20039 58004





000
SAUS45 KRIW 310458
MTRP60
METAR KP60 310456Z AUTO 00000KT 04/03 A3010 RMK AO1 SLP136 T00440033





000
SAUS45 KRIW 310358
MTRP60
METAR KP60 310356Z AUTO 00000KT 04/04 A3011 RMK AO1 SLP142 T00440039





000
SAUS45 KRIW 310258
MTRP60
METAR KP60 310256Z AUTO VRB03KT 04/03 A3011 RMK AO1 SLP147 P0012
60017 T00440033 53008





000
SAUS45 KRIW 310158
MTRP60
METAR KP60 310156Z AUTO 31008G15KT 05/03 A3009 RMK AO1 SLP148 P0005
T00500033





000
SAUS45 KRIW 310059
MTRP60
METAR KP60 310056Z AUTO 32007KT 07/04 A3008 RMK AO1 SLP144 T00670044





000
SAUS45 KRIW 302359
MTRP60
METAR KP60 302356Z AUTO 00000KT 08/06 A3008 RMK AO1 SLP136 60042
T00830061 10094 20044 56018





000
SAUS45 KRIW 302258
MTRP60
METAR KP60 302256Z AUTO 00000KT 07/06 A3008 RMK AO1 SLP142 T00720056





000
SAUS45 KRIW 302158
MTRP60
METAR KP60 302156Z AUTO 31005KT 06/04 A3009 RMK AO1 SLP151 P0007
T00560044





000
SAUS45 KRIW 302058
MTRP60
METAR KP60 302056Z AUTO VRB03KT 04/03 A3015 RMK AO1 SLP173 P0012
60035 T00440028 53009





000
SAUS45 KRIW 301958
MTRP60
METAR KP60 301956Z AUTO 31008KT 250V340 06/04 A3013 RMK AO1 SLP165
P0002 T00610044





000
SAUS45 KRIW 301858
MTRP60
METAR KP60 301856Z AUTO 31011G23KT 08/05 A3011 RMK AO1 PK WND
32027/1814 SLP150 P0021 T00780050





000
SAUS45 KRIW 301758
MTRP60
METAR KP60 301756Z AUTO 11/05 A3011 RMK AO1 PK WND 30028/1755 PRESRR
SLP139 60005 T01060050 10139 20061 53000





000
SAUS45 KRIW 301658
MTRP60
METAR KP60 301656Z AUTO VRB05KT 13/07 A3008 RMK AO1 SLP115 T01330067





000
SAUS45 KRIW 301559
MTRP60
METAR KP60 301556Z AUTO 00000KT 13/08 A3010 RMK AO1 SLP115 T01280078





000
SAUS45 KRIW 301458
MTRP60
METAR KP60 301456Z AUTO 00000KT 11/08 A3011 RMK AO1 SLP132 P0002
60005 T01110078 50001





000
SAUS45 KRIW 301358
MTRP60
METAR KP60 301356Z AUTO 31006KT 08/07 A3014 RMK AO1 SLP144 P0003
T00830067





000
SAUS45 KRIW 301258
MTRP60
METAR KP60 301256Z AUTO 32005KT 06/05 A3011 RMK AO1 SLP123 T00610050





000
SAUS45 KRIW 301158
MTRP60
METAR KP60 301156Z AUTO 00000KT 07/06 A3011 RMK AO1 SLP117 T00670056
10078 20056 58017





000
SAUS45 KRIW 301058
MTRP60
METAR KP60 301056Z AUTO 31003KT 07/05 A3014 RMK AO1 SLP128 T00670050





000
SAUS45 KRIW 300958
MTRP60
METAR KP60 300956Z AUTO 00000KT 07/05 A3015 RMK AO1 SLP131 T00670050





000
SAUS45 KRIW 300858
MTRP60
METAR KP60 300856Z AUTO 32003KT 06/04 A3017 RMK AO1 SLP143 T00610044
56006





000
SAUS45 KRIW 300758
MTRP60
METAR KP60 300756Z AUTO 00000KT 06/04 A3018 RMK AO1 SLP145 T00560039





000
SAUS45 KRIW 300658
MTRP60
METAR KP60 300656Z AUTO 00000KT 06/04 A3018 RMK AO1 SLP156 T00610039
402000044





000
SAUS45 KRIW 300558
MTRP60
METAR KP60 300556Z AUTO 31003KT 08/04 A3020 RMK AO1 SLP157 T00780044
10194 20078 56007





000
SAUS45 KRIW 300458
MTRP60
METAR KP60 300456Z AUTO 00000KT 11/05 A3020 RMK AO1 SLP159 T01060050





000
SAUS45 KRIW 300358
MTRP60
METAR KP60 300356Z AUTO 28005KT 13/03 A3021 RMK AO1 SLP158 T01330028





000
SAUS45 KRIW 300258
MTRP60
METAR KP60 300256Z AUTO 30003KT 09/07 A3022 RMK AO1 SLP175 T00940067
53003





000
SAUS45 KRIW 300158
MTRP60
METAR KP60 300156Z AUTO 00000KT 12/07 A3021 RMK AO1 SLP173 T01220072





000
SAUS45 KRIW 300058
MTRP60
METAR KP60 300056Z AUTO VRB04KT 18/02 A3021 RMK AO1 SLP166 T01780017





000
SAUS45 KRIW 292358
MTRP60
METAR KP60 292356Z AUTO VRB03KT 19/02 A3021 RMK AO1 SLP158 T01940022
10200 20144 56009





000
SAUS45 KRIW 292258
MTRP60
METAR KP60 292256Z AUTO 24007KT 170V290 19/03 A3022 RMK AO1 SLP156
T01940028





000
SAUS45 KRIW 292158
MTRP60
METAR KP60 292156Z AUTO VRB04KT 20/02 A3023 RMK AO1 SLP158 T02000022





000
SAUS45 KRIW 292058
MTRP60
METAR KP60 292056Z AUTO 27011G18KT 19/M01 A3025 RMK AO1 SLP166
T01891006 58012





000
SAUS45 KRIW 291958
MTRP60
METAR KP60 291956Z AUTO 25008KT 220V280 19/03 A3026 RMK AO1 SLP169
T01940033





000
SAUS45 KRIW 291859
MTRP60
METAR KP60 291856Z AUTO 09003KT 16/09 A3028 RMK AO1 SLP184 T01560089





000
SAUS45 KRIW 291759
MTRP60
METAR KP60 291756Z AUTO 11006KT 16/09 A3029 RMK AO1 SLP188 T01560094
10156 20044 58005





000
SAUS45 KRIW 291659
MTRP60
METAR KP60 291656Z AUTO VRB04KT 13/08 A3031 RMK AO1 SLP201 T01280083





000
SAUS45 KRIW 291559
MTRP60
METAR KP60 291556Z AUTO 00000KT 12/08 A3031 RMK AO1 SLP202 T01220083





000
SAUS45 KRIW 291459
MTRP60
METAR KP60 291456Z AUTO 00000KT 11/09 A3031 RMK AO1 SLP197 T01060089
53002





    US Dept of Commerce
    National Oceanic and Atmospheric Administration
    National Weather Service
    1325 East West Highway
    Silver Spring, MD 20910
    Page Author: NWS Internet Services Team
Disclaimer
Information Quality
Credits
Glossary
Privacy Policy
Freedom of Information Act (FOIA)
About Us
Career Opportunities